sensor_id;sensor_type;location;lat;lon;timestamp;P1;P2;P0
36453;PMS5003;22478;51.740;-1.314;2023-08-20T00:01:27;4;3;
36453;PMS5003;22478;51.740;-1.314;2023-08-20T00:03:55;4;2;
36453;PMS5003;22478;51.740;-1.314;2023-08-20T00:06:23;2;2;
36453;PMS5003;22478;51.740;-1.314;2023-08-20T00:08:52;7;3;
36453;PMS5003;22478;51.740;-1.314;2023-08-20T00:11:19;3;3;
36453;PMS5003;22478;51.740;-1.314;2023-08-20T00:13:46;5;3;
36453;PMS5003;22478;51.740;-1.314;2023-08-20T00:16:13;2;2;
36453;PMS5003;22478;51.740;-1.314;2023-08-20T00:18:40;2;2;
36453;PMS5003;22478;51.740;-1.314;2023-08-20T00:21:08;6;2;
36453;PMS5003;22478;51.740;-1.314;2023-08-20T00:23:36;2;2;
36453;PMS5003;22478;51.740;-1.314;2023-08-20T00:26:04;2;2;
36453;PMS5003;22478;51.740;-1.314;2023-08-20T00:28:32;4;4;
36453;PMS5003;22478;51.740;-1.314;2023-08-20T00:30:59;4;4;
36453;PMS5003;22478;51.740;-1.314;2023-08-20T00:33:25;5;4;
36453;PMS5003;22478;51.740;-1.314;2023-08-20T00:35:52;8;3;
36453;PMS5003;22478;51.740;-1.314;2023-08-20T00:38:19;3;3;
36453;PMS5003;22478;51.740;-1.314;2023-08-20T00:40:46;5;3;
36453;PMS5003;22478;51.740;-1.314;2023-08-20T00:43:13;3;3;
36453;PMS5003;22478;51.740;-1.314;2023-08-20T00:45:41;4;1;
36453;PMS5003;22478;51.740;-1.314;2023-08-20T00:48:09;3;3;
36453;PMS5003;22478;51.740;-1.314;2023-08-20T00:50:37;6;4;
36453;PMS5003;22478;51.740;-1.314;2023-08-20T00:53:05;5;4;
36453;PMS5003;22478;51.740;-1.314;2023-08-20T00:55:33;8;2;
36453;PMS5003;22478;51.740;-1.314;2023-08-20T00:58:00;4;2;
36453;PMS5003;22478;51.740;-1.314;2023-08-20T01:00:27;8;5;
36453;PMS5003;22478;51.740;-1.314;2023-08-20T01:02:54;4;3;
36453;PMS5003;22478;51.740;-1.314;2023-08-20T01:05:21;4;4;
36453;PMS5003;22478;51.740;-1.314;2023-08-20T01:07:53;5;5;
36453;PMS5003;22478;51.740;-1.314;2023-08-20T01:10:34;4;4;
36453;PMS5003;22478;51.740;-1.314;2023-08-20T01:13:06;4;4;
36453;PMS5003;22478;51.740;-1.314;2023-08-20T01:15:34;4;4;
36453;PMS5003;22478;51.740;-1.314;2023-08-20T01:18:01;6;5;
36453;PMS5003;22478;51.740;-1.314;2023-08-20T01:20:29;6;3;
36453;PMS5003;22478;51.740;-1.314;2023-08-20T01:23:04;7;6;
36453;PMS5003;22478;51.740;-1.314;2023-08-20T01:26:10;4;4;
36453;PMS5003;22478;51.740;-1.314;2023-08-20T01:28:48;4;4;
36453;PMS5003;22478;51.740;-1.314;2023-08-20T01:31:15;10;8;
36453;PMS5003;22478;51.740;-1.314;2023-08-20T01:33:43;4;4;
36453;PMS5003;22478;51.740;-1.314;2023-08-20T01:36:10;6;6;
36453;PMS5003;22478;51.740;-1.314;2023-08-20T01:38:37;8;3;
36453;PMS5003;22478;51.740;-1.314;2023-08-20T01:41:04;6;6;
36453;PMS5003;22478;51.740;-1.314;2023-08-20T01:43:31;3;3;
36453;PMS5003;22478;51.740;-1.314;2023-08-20T01:45:58;6;4;
36453;PMS5003;22478;51.740;-1.314;2023-08-20T01:48:25;9;4;
36453;PMS5003;22478;51.740;-1.314;2023-08-20T01:50:52;4;4;
36453;PMS5003;22478;51.740;-1.314;2023-08-20T01:53:19;7;5;
36453;PMS5003;22478;51.740;-1.314;2023-08-20T01:55:46;7;6;
36453;PMS5003;22478;51.740;-1.314;2023-08-20T01:58:13;5;4;
36453;PMS5003;22478;51.740;-1.314;2023-08-20T02:00:40;8;4;
36453;PMS5003;22478;51.740;-1.314;2023-08-20T02:03:07;5;4;
36453;PMS5003;22478;51.740;-1.314;2023-08-20T02:05:34;7;5;
36453;PMS5003;22478;51.740;-1.314;2023-08-20T02:08:02;4;4;
36453;PMS5003;22478;51.740;-1.314;2023-08-20T02:10:29;5;5;
36453;PMS5003;22478;51.740;-1.314;2023-08-20T02:12:56;6;3;
36453;PMS5003;22478;51.740;-1.314;2023-08-20T02:15:24;8;5;
36453;PMS5003;22478;51.740;-1.314;2023-08-20T02:17:51;4;4;
36453;PMS5003;22478;51.740;-1.314;2023-08-20T02:20:18;7;6;
36453;PMS5003;22478;51.740;-1.314;2023-08-20T02:22:45;7;5;
36453;PMS5003;22478;51.740;-1.314;2023-08-20T02:25:12;4;4;
36453;PMS5003;22478;51.740;-1.314;2023-08-20T02:27:39;3;3;
36453;PMS5003;22478;51.740;-1.314;2023-08-20T02:30:06;6;5;
36453;PMS5003;22478;51.740;-1.314;2023-08-20T02:32:35;4;3;
36453;PMS5003;22478;51.740;-1.314;2023-08-20T02:35:02;10;5;
36453;PMS5003;22478;51.740;-1.314;2023-08-20T02:37:29;5;4;
36453;PMS5003;22478;51.740;-1.314;2023-08-20T02:39:56;3;3;
36453;PMS5003;22478;51.740;-1.314;2023-08-20T02:42:23;6;5;
36453;PMS5003;22478;51.740;-1.314;2023-08-20T02:44:50;6;4;
36453;PMS5003;22478;51.740;-1.314;2023-08-20T02:47:17;5;4;
36453;PMS5003;22478;51.740;-1.314;2023-08-20T02:49:44;7;5;
36453;PMS5003;22478;51.740;-1.314;2023-08-20T02:52:11;6;4;
36453;PMS5003;22478;51.740;-1.314;2023-08-20T02:54:38;6;3;
36453;PMS5003;22478;51.740;-1.314;2023-08-20T02:57:06;6;6;
36453;PMS5003;22478;51.740;-1.314;2023-08-20T02:59:33;7;4;
36453;PMS5003;22478;51.740;-1.314;2023-08-20T03:02:00;4;4;
36453;PMS5003;22478;51.740;-1.314;2023-08-20T03:04:27;5;5;
36453;PMS5003;22478;51.740;-1.314;2023-08-20T03:06:55;6;4;
36453;PMS5003;22478;51.740;-1.314;2023-08-20T03:09:22;5;5;
36453;PMS5003;22478;51.740;-1.314;2023-08-20T03:11:49;5;4;
36453;PMS5003;22478;51.740;-1.314;2023-08-20T03:14:16;8;6;
36453;PMS5003;22478;51.740;-1.314;2023-08-20T03:16:43;6;6;
36453;PMS5003;22478;51.740;-1.314;2023-08-20T03:19:10;7;4;
36453;PMS5003;22478;51.740;-1.314;2023-08-20T03:21:37;10;5;
36453;PMS5003;22478;51.740;-1.314;2023-08-20T03:24:05;7;5;
36453;PMS5003;22478;51.740;-1.314;2023-08-20T03:26:33;6;5;
36453;PMS5003;22478;51.740;-1.314;2023-08-20T03:29:00;7;5;
36453;PMS5003;22478;51.740;-1.314;2023-08-20T03:31:27;8;5;
36453;PMS5003;22478;51.740;-1.314;2023-08-20T03:33:54;7;5;
36453;PMS5003;22478;51.740;-1.314;2023-08-20T03:36:21;6;5;
36453;PMS5003;22478;51.740;-1.314;2023-08-20T03:38:48;6;5;
36453;PMS5003;22478;51.740;-1.314;2023-08-20T03:41:16;6;5;
36453;PMS5003;22478;51.740;-1.314;2023-08-20T03:43:43;6;6;
36453;PMS5003;22478;51.740;-1.314;2023-08-20T03:46:10;7;7;
36453;PMS5003;22478;51.740;-1.314;2023-08-20T03:48:37;7;4;
36453;PMS5003;22478;51.740;-1.314;2023-08-20T03:51:04;4;4;
36453;PMS5003;22478;51.740;-1.314;2023-08-20T03:53:31;5;5;
36453;PMS5003;22478;51.740;-1.314;2023-08-20T03:55:58;8;8;
36453;PMS5003;22478;51.740;-1.314;2023-08-20T03:58:26;9;9;
36453;PMS5003;22478;51.740;-1.314;2023-08-20T04:00:53;5;3;
36453;PMS5003;22478;51.740;-1.314;2023-08-20T04:03:20;4;4;
36453;PMS5003;22478;51.740;-1.314;2023-08-20T04:05:49;6;5;
36453;PMS5003;22478;51.740;-1.314;2023-08-20T04:08:16;6;6;
36453;PMS5003;22478;51.740;-1.314;2023-08-20T04:10:44;3;3;
36453;PMS5003;22478;51.740;-1.314;2023-08-20T04:13:12;4;4;
36453;PMS5003;22478;51.740;-1.314;2023-08-20T04:15:39;5;4;
36453;PMS5003;22478;51.740;-1.314;2023-08-20T04:18:06;8;8;
36453;PMS5003;22478;51.740;-1.314;2023-08-20T04:20:33;9;7;
36453;PMS5003;22478;51.740;-1.314;2023-08-20T04:23:00;13;7;
36453;PMS5003;22478;51.740;-1.314;2023-08-20T04:25:27;7;5;
36453;PMS5003;22478;51.740;-1.314;2023-08-20T04:27:54;5;5;
36453;PMS5003;22478;51.740;-1.314;2023-08-20T04:30:21;7;6;
36453;PMS5003;22478;51.740;-1.314;2023-08-20T04:32:48;6;4;
36453;PMS5003;22478;51.740;-1.314;2023-08-20T04:35:15;8;4;
36453;PMS5003;22478;51.740;-1.314;2023-08-20T04:37:42;5;5;
36453;PMS5003;22478;51.740;-1.314;2023-08-20T04:40:10;6;4;
36453;PMS5003;22478;51.740;-1.314;2023-08-20T04:42:37;5;4;
36453;PMS5003;22478;51.740;-1.314;2023-08-20T04:45:05;4;3;
36453;PMS5003;22478;51.740;-1.314;2023-08-20T04:47:33;3;3;
36453;PMS5003;22478;51.740;-1.314;2023-08-20T04:50:01;9;8;
36453;PMS5003;22478;51.740;-1.314;2023-08-20T04:52:28;13;6;
36453;PMS5003;22478;51.740;-1.314;2023-08-20T04:54:55;5;5;
36453;PMS5003;22478;51.740;-1.314;2023-08-20T04:57:22;3;3;
36453;PMS5003;22478;51.740;-1.314;2023-08-20T04:59:49;7;6;
36453;PMS5003;22478;51.740;-1.314;2023-08-20T05:02:16;6;6;
36453;PMS5003;22478;51.740;-1.314;2023-08-20T05:04:43;6;3;
36453;PMS5003;22478;51.740;-1.314;2023-08-20T05:07:10;4;4;
36453;PMS5003;22478;51.740;-1.314;2023-08-20T05:09:37;4;4;
36453;PMS5003;22478;51.740;-1.314;2023-08-20T05:12:04;6;6;
36453;PMS5003;22478;51.740;-1.314;2023-08-20T05:14:31;8;6;
36453;PMS5003;22478;51.740;-1.314;2023-08-20T05:16:58;7;5;
36453;PMS5003;22478;51.740;-1.314;2023-08-20T05:19:25;5;4;
36453;PMS5003;22478;51.740;-1.314;2023-08-20T05:21:52;7;4;
36453;PMS5003;22478;51.740;-1.314;2023-08-20T05:24:19;6;5;
36453;PMS5003;22478;51.740;-1.314;2023-08-20T05:26:46;8;6;
36453;PMS5003;22478;51.740;-1.314;2023-08-20T05:29:13;12;6;
36453;PMS5003;22478;51.740;-1.314;2023-08-20T05:31:41;8;6;
36453;PMS5003;22478;51.740;-1.314;2023-08-20T05:34:08;8;6;
36453;PMS5003;22478;51.740;-1.314;2023-08-20T05:36:35;8;7;
36453;PMS5003;22478;51.740;-1.314;2023-08-20T05:39:02;6;3;
36453;PMS5003;22478;51.740;-1.314;2023-08-20T05:41:30;9;7;
36453;PMS5003;22478;51.740;-1.314;2023-08-20T05:43:57;9;7;
36453;PMS5003;22478;51.740;-1.314;2023-08-20T05:46:24;6;5;
36453;PMS5003;22478;51.740;-1.314;2023-08-20T05:48:51;7;5;
36453;PMS5003;22478;51.740;-1.314;2023-08-20T05:51:18;3;3;
36453;PMS5003;22478;51.740;-1.314;2023-08-20T05:53:45;7;5;
36453;PMS5003;22478;51.740;-1.314;2023-08-20T05:56:12;8;5;
36453;PMS5003;22478;51.740;-1.314;2023-08-20T05:58:39;5;5;
36453;PMS5003;22478;51.740;-1.314;2023-08-20T06:01:06;3;3;
36453;PMS5003;22478;51.740;-1.314;2023-08-20T06:03:33;6;6;
36453;PMS5003;22478;51.740;-1.314;2023-08-20T06:06:00;7;6;
36453;PMS5003;22478;51.740;-1.314;2023-08-20T06:08:27;8;5;
36453;PMS5003;22478;51.740;-1.314;2023-08-20T06:10:54;10;6;
36453;PMS5003;22478;51.740;-1.314;2023-08-20T06:13:22;7;5;
36453;PMS5003;22478;51.740;-1.314;2023-08-20T06:15:49;5;5;
36453;PMS5003;22478;51.740;-1.314;2023-08-20T06:18:16;5;4;
36453;PMS5003;22478;51.740;-1.314;2023-08-20T06:20:43;6;4;
36453;PMS5003;22478;51.740;-1.314;2023-08-20T06:23:10;6;5;
36453;PMS5003;22478;51.740;-1.314;2023-08-20T06:25:37;6;6;
36453;PMS5003;22478;51.740;-1.314;2023-08-20T06:28:04;7;6;
36453;PMS5003;22478;51.740;-1.314;2023-08-20T06:30:32;6;5;
36453;PMS5003;22478;51.740;-1.314;2023-08-20T06:32:59;3;3;
36453;PMS5003;22478;51.740;-1.314;2023-08-20T06:35:26;4;4;
36453;PMS5003;22478;51.740;-1.314;2023-08-20T06:37:53;7;5;
36453;PMS5003;22478;51.740;-1.314;2023-08-20T06:40:20;3;3;
36453;PMS5003;22478;51.740;-1.314;2023-08-20T06:42:47;6;6;
36453;PMS5003;22478;51.740;-1.314;2023-08-20T06:45:14;6;6;
36453;PMS5003;22478;51.740;-1.314;2023-08-20T06:47:41;4;4;
36453;PMS5003;22478;51.740;-1.314;2023-08-20T06:50:08;7;5;
36453;PMS5003;22478;51.740;-1.314;2023-08-20T06:52:35;6;5;
36453;PMS5003;22478;51.740;-1.314;2023-08-20T06:55:02;7;5;
36453;PMS5003;22478;51.740;-1.314;2023-08-20T06:57:30;4;4;
36453;PMS5003;22478;51.740;-1.314;2023-08-20T06:59:57;7;6;
36453;PMS5003;22478;51.740;-1.314;2023-08-20T07:02:24;5;2;
36453;PMS5003;22478;51.740;-1.314;2023-08-20T07:04:51;7;4;
36453;PMS5003;22478;51.740;-1.314;2023-08-20T07:07:18;5;3;
36453;PMS5003;22478;51.740;-1.314;2023-08-20T07:09:45;4;4;
36453;PMS5003;22478;51.740;-1.314;2023-08-20T07:12:12;7;6;
36453;PMS5003;22478;51.740;-1.314;2023-08-20T07:14:38;4;3;
36453;PMS5003;22478;51.740;-1.314;2023-08-20T07:17:05;6;5;
36453;PMS5003;22478;51.740;-1.314;2023-08-20T07:19:32;4;3;
36453;PMS5003;22478;51.740;-1.314;2023-08-20T07:21:59;4;2;
36453;PMS5003;22478;51.740;-1.314;2023-08-20T07:24:26;5;5;
36453;PMS5003;22478;51.740;-1.314;2023-08-20T07:26:54;6;6;
36453;PMS5003;22478;51.740;-1.314;2023-08-20T07:29:21;4;4;
36453;PMS5003;22478;51.740;-1.314;2023-08-20T07:31:48;3;3;
36453;PMS5003;22478;51.740;-1.314;2023-08-20T07:34:15;4;4;
36453;PMS5003;22478;51.740;-1.314;2023-08-20T07:36:42;4;3;
36453;PMS5003;22478;51.740;-1.314;2023-08-20T07:39:09;5;4;
36453;PMS5003;22478;51.740;-1.314;2023-08-20T07:41:36;4;4;
36453;PMS5003;22478;51.740;-1.314;2023-08-20T07:44:03;4;4;
36453;PMS5003;22478;51.740;-1.314;2023-08-20T07:46:31;4;4;
36453;PMS5003;22478;51.740;-1.314;2023-08-20T07:48:57;4;4;
36453;PMS5003;22478;51.740;-1.314;2023-08-20T07:51:24;5;4;
36453;PMS5003;22478;51.740;-1.314;2023-08-20T07:53:51;6;3;
36453;PMS5003;22478;51.740;-1.314;2023-08-20T07:56:18;6;3;
36453;PMS5003;22478;51.740;-1.314;2023-08-20T07:58:45;2;2;
36453;PMS5003;22478;51.740;-1.314;2023-08-20T08:01:12;7;4;
36453;PMS5003;22478;51.740;-1.314;2023-08-20T08:03:39;4;4;
36453;PMS5003;22478;51.740;-1.314;2023-08-20T08:06:07;2;2;
36453;PMS5003;22478;51.740;-1.314;2023-08-20T08:08:34;4;4;
36453;PMS5003;22478;51.740;-1.314;2023-08-20T08:11:00;5;4;
36453;PMS5003;22478;51.740;-1.314;2023-08-20T08:13:27;5;3;
36453;PMS5003;22478;51.740;-1.314;2023-08-20T08:15:54;4;4;
36453;PMS5003;22478;51.740;-1.314;2023-08-20T08:18:21;3;2;
36453;PMS5003;22478;51.740;-1.314;2023-08-20T08:20:49;4;4;
36453;PMS5003;22478;51.740;-1.314;2023-08-20T08:23:16;2;2;
36453;PMS5003;22478;51.740;-1.314;2023-08-20T08:25:43;2;2;
36453;PMS5003;22478;51.740;-1.314;2023-08-20T08:28:11;5;5;
36453;PMS5003;22478;51.740;-1.314;2023-08-20T08:30:39;3;1;
36453;PMS5003;22478;51.740;-1.314;2023-08-20T08:33:06;3;3;
36453;PMS5003;22478;51.740;-1.314;2023-08-20T08:35:33;4;4;
36453;PMS5003;22478;51.740;-1.314;2023-08-20T08:38:00;3;3;
36453;PMS5003;22478;51.740;-1.314;2023-08-20T08:40:28;3;3;
36453;PMS5003;22478;51.740;-1.314;2023-08-20T08:42:56;4;4;
36453;PMS5003;22478;51.740;-1.314;2023-08-20T08:45:24;3;3;
36453;PMS5003;22478;51.740;-1.314;2023-08-20T08:47:53;2;2;
36453;PMS5003;22478;51.740;-1.314;2023-08-20T08:50:20;3;2;
36453;PMS5003;22478;51.740;-1.314;2023-08-20T08:52:49;4;1;
36453;PMS5003;22478;51.740;-1.314;2023-08-20T08:55:18;4;2;
36453;PMS5003;22478;51.740;-1.314;2023-08-20T08:57:45;3;3;
36453;PMS5003;22478;51.740;-1.314;2023-08-20T09:00:13;4;4;
36453;PMS5003;22478;51.740;-1.314;2023-08-20T09:02:42;5;5;
36453;PMS5003;22478;51.740;-1.314;2023-08-20T09:05:09;3;3;
36453;PMS5003;22478;51.740;-1.314;2023-08-20T09:07:41;6;3;
36453;PMS5003;22478;51.740;-1.314;2023-08-20T09:10:09;5;3;
36453;PMS5003;22478;51.740;-1.314;2023-08-20T09:12:37;6;2;
36453;PMS5003;22478;51.740;-1.314;2023-08-20T09:15:09;5;5;
36453;PMS5003;22478;51.740;-1.314;2023-08-20T09:17:37;4;2;
36453;PMS5003;22478;51.740;-1.314;2023-08-20T09:20:05;3;3;
36453;PMS5003;22478;51.740;-1.314;2023-08-20T09:22:35;6;3;
36453;PMS5003;22478;51.740;-1.314;2023-08-20T09:25:03;5;3;
36453;PMS5003;22478;51.740;-1.314;2023-08-20T09:27:30;5;2;
36453;PMS5003;22478;51.740;-1.314;2023-08-20T09:30:06;3;3;
36453;PMS5003;22478;51.740;-1.314;2023-08-20T09:32:34;2;2;
36453;PMS5003;22478;51.740;-1.314;2023-08-20T09:35:02;2;2;
36453;PMS5003;22478;51.740;-1.314;2023-08-20T09:37:30;1;1;
36453;PMS5003;22478;51.740;-1.314;2023-08-20T09:39:59;3;2;
36453;PMS5003;22478;51.740;-1.314;2023-08-20T09:42:27;4;2;
36453;PMS5003;22478;51.740;-1.314;2023-08-20T09:44:57;2;2;
36453;PMS5003;22478;51.740;-1.314;2023-08-20T09:47:26;0;0;
36453;PMS5003;22478;51.740;-1.314;2023-08-20T09:49:55;1;1;
36453;PMS5003;22478;51.740;-1.314;2023-08-20T09:52:25;2;2;
36453;PMS5003;22478;51.740;-1.314;2023-08-20T09:55:03;0;0;
36453;PMS5003;22478;51.740;-1.314;2023-08-20T09:57:35;3;3;
36453;PMS5003;22478;51.740;-1.314;2023-08-20T10:00:05;2;2;
36453;PMS5003;22478;51.740;-1.314;2023-08-20T10:02:33;2;0;
36453;PMS5003;22478;51.740;-1.314;2023-08-20T10:05:01;2;2;
36453;PMS5003;22478;51.740;-1.314;2023-08-20T10:07:29;1;1;
36453;PMS5003;22478;51.740;-1.314;2023-08-20T10:09:57;2;2;
36453;PMS5003;22478;51.740;-1.314;2023-08-20T10:12:24;1;1;
36453;PMS5003;22478;51.740;-1.314;2023-08-20T10:14:52;1;1;
36453;PMS5003;22478;51.740;-1.314;2023-08-20T10:17:19;1;1;
36453;PMS5003;22478;51.740;-1.314;2023-08-20T10:19:51;3;1;
36453;PMS5003;22478;51.740;-1.314;2023-08-20T10:22:19;1;1;
36453;PMS5003;22478;51.740;-1.314;2023-08-20T10:24:47;2;0;
36453;PMS5003;22478;51.740;-1.314;2023-08-20T10:27:23;2;2;
36453;PMS5003;22478;51.740;-1.314;2023-08-20T10:29:52;0;0;
36453;PMS5003;22478;51.740;-1.314;2023-08-20T10:32:20;4;3;
36453;PMS5003;22478;51.740;-1.314;2023-08-20T10:35:10;1;1;
36453;PMS5003;22478;51.740;-1.314;2023-08-20T10:37:38;2;2;
36453;PMS5003;22478;51.740;-1.314;2023-08-20T10:40:06;2;2;
36453;PMS5003;22478;51.740;-1.314;2023-08-20T10:42:41;1;1;
36453;PMS5003;22478;51.740;-1.314;2023-08-20T10:45:08;2;0;
36453;PMS5003;22478;51.740;-1.314;2023-08-20T10:47:41;2;2;
36453;PMS5003;22478;51.740;-1.314;2023-08-20T10:50:10;0;0;
36453;PMS5003;22478;51.740;-1.314;2023-08-20T10:52:43;2;2;
36453;PMS5003;22478;51.740;-1.314;2023-08-20T10:55:14;3;1;
36453;PMS5003;22478;51.740;-1.314;2023-08-20T10:57:42;1;0;
36453;PMS5003;22478;51.740;-1.314;2023-08-20T11:00:10;0;0;
36453;PMS5003;22478;51.740;-1.314;2023-08-20T11:02:42;1;1;
36453;PMS5003;22478;51.740;-1.314;2023-08-20T11:05:16;1;1;
36453;PMS5003;22478;51.740;-1.314;2023-08-20T11:07:44;2;2;
36453;PMS5003;22478;51.740;-1.314;2023-08-20T11:10:12;1;1;
36453;PMS5003;22478;51.740;-1.314;2023-08-20T11:12:41;1;1;
36453;PMS5003;22478;51.740;-1.314;2023-08-20T11:15:09;1;0;
36453;PMS5003;22478;51.740;-1.314;2023-08-20T11:17:40;1;1;
36453;PMS5003;22478;51.740;-1.314;2023-08-20T11:20:08;0;0;
36453;PMS5003;22478;51.740;-1.314;2023-08-20T11:22:36;1;1;
36453;PMS5003;22478;51.740;-1.314;2023-08-20T11:25:04;1;1;
36453;PMS5003;22478;51.740;-1.314;2023-08-20T11:27:31;2;0;
36453;PMS5003;22478;51.740;-1.314;2023-08-20T11:29:58;1;1;
36453;PMS5003;22478;51.740;-1.314;2023-08-20T11:32:26;1;1;
36453;PMS5003;22478;51.740;-1.314;2023-08-20T11:34:53;0;0;
36453;PMS5003;22478;51.740;-1.314;2023-08-20T11:37:21;1;1;
36453;PMS5003;22478;51.740;-1.314;2023-08-20T11:39:49;0;0;
36453;PMS5003;22478;51.740;-1.314;2023-08-20T11:42:16;1;1;
36453;PMS5003;22478;51.740;-1.314;2023-08-20T11:44:44;2;1;
36453;PMS5003;22478;51.740;-1.314;2023-08-20T11:47:13;2;1;
36453;PMS5003;22478;51.740;-1.314;2023-08-20T11:49:42;0;0;
36453;PMS5003;22478;51.740;-1.314;2023-08-20T11:52:09;1;1;
36453;PMS5003;22478;51.740;-1.314;2023-08-20T11:54:37;0;0;
36453;PMS5003;22478;51.740;-1.314;2023-08-20T11:57:05;0;0;
36453;PMS5003;22478;51.740;-1.314;2023-08-20T11:59:33;1;0;
36453;PMS5003;22478;51.740;-1.314;2023-08-20T12:02:01;0;0;
36453;PMS5003;22478;51.740;-1.314;2023-08-20T12:04:29;0;0;
36453;PMS5003;22478;51.740;-1.314;2023-08-20T12:07:04;2;1;
36453;PMS5003;22478;51.740;-1.314;2023-08-20T12:09:35;0;0;
36453;PMS5003;22478;51.740;-1.314;2023-08-20T12:12:02;1;1;
36453;PMS5003;22478;51.740;-1.314;2023-08-20T12:14:31;0;0;
36453;PMS5003;22478;51.740;-1.314;2023-08-20T12:16:59;2;1;
36453;PMS5003;22478;51.740;-1.314;2023-08-20T12:19:26;1;1;
36453;PMS5003;22478;51.740;-1.314;2023-08-20T12:21:54;0;0;
36453;PMS5003;22478;51.740;-1.314;2023-08-20T12:24:21;0;0;
36453;PMS5003;22478;51.740;-1.314;2023-08-20T12:26:49;1;1;
36453;PMS5003;22478;51.740;-1.314;2023-08-20T12:29:16;0;0;
36453;PMS5003;22478;51.740;-1.314;2023-08-20T12:31:44;1;0;
36453;PMS5003;22478;51.740;-1.314;2023-08-20T12:34:11;0;0;
36453;PMS5003;22478;51.740;-1.314;2023-08-20T12:36:39;2;1;
36453;PMS5003;22478;51.740;-1.314;2023-08-20T12:39:06;0;0;
36453;PMS5003;22478;51.740;-1.314;2023-08-20T12:41:34;1;1;
36453;PMS5003;22478;51.740;-1.314;2023-08-20T12:44:01;1;1;
36453;PMS5003;22478;51.740;-1.314;2023-08-20T12:46:29;1;1;
36453;PMS5003;22478;51.740;-1.314;2023-08-20T12:48:56;2;1;
36453;PMS5003;22478;51.740;-1.314;2023-08-20T12:51:24;2;0;
36453;PMS5003;22478;51.740;-1.314;2023-08-20T12:53:52;1;1;
36453;PMS5003;22478;51.740;-1.314;2023-08-20T12:56:20;0;0;
36453;PMS5003;22478;51.740;-1.314;2023-08-20T12:58:47;0;0;
36453;PMS5003;22478;51.740;-1.314;2023-08-20T13:01:15;1;1;
36453;PMS5003;22478;51.740;-1.314;2023-08-20T13:03:43;1;1;
36453;PMS5003;22478;51.740;-1.314;2023-08-20T13:06:10;0;0;
36453;PMS5003;22478;51.740;-1.314;2023-08-20T13:08:38;2;1;
36453;PMS5003;22478;51.740;-1.314;2023-08-20T13:11:06;1;1;
36453;PMS5003;22478;51.740;-1.314;2023-08-20T13:13:33;2;1;
36453;PMS5003;22478;51.740;-1.314;2023-08-20T13:16:01;0;0;
36453;PMS5003;22478;51.740;-1.314;2023-08-20T13:18:29;1;1;
36453;PMS5003;22478;51.740;-1.314;2023-08-20T13:20:57;0;0;
36453;PMS5003;22478;51.740;-1.314;2023-08-20T13:23:25;1;1;
36453;PMS5003;22478;51.740;-1.314;2023-08-20T13:25:52;0;0;
36453;PMS5003;22478;51.740;-1.314;2023-08-20T13:28:20;1;1;
36453;PMS5003;22478;51.740;-1.314;2023-08-20T13:30:47;2;2;
36453;PMS5003;22478;51.740;-1.314;2023-08-20T13:33:15;2;0;
36453;PMS5003;22478;51.740;-1.314;2023-08-20T13:35:42;1;1;
36453;PMS5003;22478;51.740;-1.314;2023-08-20T13:38:10;0;0;
36453;PMS5003;22478;51.740;-1.314;2023-08-20T13:40:37;1;1;
36453;PMS5003;22478;51.740;-1.314;2023-08-20T13:43:05;1;1;
36453;PMS5003;22478;51.740;-1.314;2023-08-20T13:45:33;1;1;
36453;PMS5003;22478;51.740;-1.314;2023-08-20T13:47:59;0;0;
36453;PMS5003;22478;51.740;-1.314;2023-08-20T13:50:27;0;0;
36453;PMS5003;22478;51.740;-1.314;2023-08-20T13:52:55;1;1;
36453;PMS5003;22478;51.740;-1.314;2023-08-20T13:55:22;0;0;
36453;PMS5003;22478;51.740;-1.314;2023-08-20T13:57:50;0;0;
36453;PMS5003;22478;51.740;-1.314;2023-08-20T14:00:17;1;1;
36453;PMS5003;22478;51.740;-1.314;2023-08-20T14:02:45;0;0;
36453;PMS5003;22478;51.740;-1.314;2023-08-20T14:05:12;1;1;
36453;PMS5003;22478;51.740;-1.314;2023-08-20T14:07:38;1;1;
36453;PMS5003;22478;51.740;-1.314;2023-08-20T14:10:06;1;1;
36453;PMS5003;22478;51.740;-1.314;2023-08-20T14:12:34;1;1;
36453;PMS5003;22478;51.740;-1.314;2023-08-20T14:15:00;1;1;
36453;PMS5003;22478;51.740;-1.314;2023-08-20T14:17:28;1;1;
36453;PMS5003;22478;51.740;-1.314;2023-08-20T14:19:56;2;2;
36453;PMS5003;22478;51.740;-1.314;2023-08-20T14:22:23;0;0;
36453;PMS5003;22478;51.740;-1.314;2023-08-20T14:24:50;1;1;
36453;PMS5003;22478;51.740;-1.314;2023-08-20T14:27:18;1;1;
36453;PMS5003;22478;51.740;-1.314;2023-08-20T14:29:45;1;0;
36453;PMS5003;22478;51.740;-1.314;2023-08-20T14:32:12;0;0;
36453;PMS5003;22478;51.740;-1.314;2023-08-20T14:34:39;2;1;
36453;PMS5003;22478;51.740;-1.314;2023-08-20T14:37:06;1;1;
36453;PMS5003;22478;51.740;-1.314;2023-08-20T14:39:33;1;1;
36453;PMS5003;22478;51.740;-1.314;2023-08-20T14:42:00;1;1;
36453;PMS5003;22478;51.740;-1.314;2023-08-20T14:44:27;1;1;
36453;PMS5003;22478;51.740;-1.314;2023-08-20T14:46:54;2;2;
36453;PMS5003;22478;51.740;-1.314;2023-08-20T14:49:21;1;1;
36453;PMS5003;22478;51.740;-1.314;2023-08-20T14:51:49;1;1;
36453;PMS5003;22478;51.740;-1.314;2023-08-20T14:54:16;0;0;
36453;PMS5003;22478;51.740;-1.314;2023-08-20T14:56:43;1;1;
36453;PMS5003;22478;51.740;-1.314;2023-08-20T14:59:10;1;1;
36453;PMS5003;22478;51.740;-1.314;2023-08-20T15:01:36;1;1;
36453;PMS5003;22478;51.740;-1.314;2023-08-20T15:04:03;1;1;
36453;PMS5003;22478;51.740;-1.314;2023-08-20T15:06:30;3;1;
36453;PMS5003;22478;51.740;-1.314;2023-08-20T15:08:58;3;3;
36453;PMS5003;22478;51.740;-1.314;2023-08-20T15:11:24;2;1;
36453;PMS5003;22478;51.740;-1.314;2023-08-20T15:13:51;1;1;
36453;PMS5003;22478;51.740;-1.314;2023-08-20T15:16:18;2;1;
36453;PMS5003;22478;51.740;-1.314;2023-08-20T15:18:45;3;2;
36453;PMS5003;22478;51.740;-1.314;2023-08-20T15:21:12;1;1;
36453;PMS5003;22478;51.740;-1.314;2023-08-20T15:23:39;3;2;
36453;PMS5003;22478;51.740;-1.314;2023-08-20T15:26:06;0;0;
36453;PMS5003;22478;51.740;-1.314;2023-08-20T15:28:32;1;1;
36453;PMS5003;22478;51.740;-1.314;2023-08-20T15:31:00;3;1;
36453;PMS5003;22478;51.740;-1.314;2023-08-20T15:33:27;4;1;
36453;PMS5003;22478;51.740;-1.314;2023-08-20T15:35:54;0;0;
36453;PMS5003;22478;51.740;-1.314;2023-08-20T15:38:21;1;1;
36453;PMS5003;22478;51.740;-1.314;2023-08-20T15:40:48;1;1;
36453;PMS5003;22478;51.740;-1.314;2023-08-20T15:43:15;1;1;
36453;PMS5003;22478;51.740;-1.314;2023-08-20T15:45:42;3;2;
36453;PMS5003;22478;51.740;-1.314;2023-08-20T15:48:09;1;1;
36453;PMS5003;22478;51.740;-1.314;2023-08-20T15:50:36;1;1;
36453;PMS5003;22478;51.740;-1.314;2023-08-20T15:53:03;1;1;
36453;PMS5003;22478;51.740;-1.314;2023-08-20T15:55:30;2;2;
36453;PMS5003;22478;51.740;-1.314;2023-08-20T15:57:57;1;1;
36453;PMS5003;22478;51.740;-1.314;2023-08-20T16:00:24;1;0;
36453;PMS5003;22478;51.740;-1.314;2023-08-20T16:02:51;1;1;
36453;PMS5003;22478;51.740;-1.314;2023-08-20T16:05:18;0;0;
36453;PMS5003;22478;51.740;-1.314;2023-08-20T16:07:46;0;0;
36453;PMS5003;22478;51.740;-1.314;2023-08-20T16:10:14;0;0;
36453;PMS5003;22478;51.740;-1.314;2023-08-20T16:12:41;1;1;
36453;PMS5003;22478;51.740;-1.314;2023-08-20T16:15:09;0;0;
36453;PMS5003;22478;51.740;-1.314;2023-08-20T16:17:37;2;2;
36453;PMS5003;22478;51.740;-1.314;2023-08-20T16:20:05;1;1;
36453;PMS5003;22478;51.740;-1.314;2023-08-20T16:22:33;1;1;
36453;PMS5003;22478;51.740;-1.314;2023-08-20T16:25:00;0;0;
36453;PMS5003;22478;51.740;-1.314;2023-08-20T16:27:27;1;1;
36453;PMS5003;22478;51.740;-1.314;2023-08-20T16:29:55;1;1;
36453;PMS5003;22478;51.740;-1.314;2023-08-20T16:32:22;0;0;
36453;PMS5003;22478;51.740;-1.314;2023-08-20T16:34:49;0;0;
36453;PMS5003;22478;51.740;-1.314;2023-08-20T16:37:17;2;2;